sensor_id;sensor_type;location;lat;lon;timestamp;temperature;humidity
8715;DHT22;4394;51.208;8.904;2022-12-05T00:01:19;2.90;99.90
8715;DHT22;4394;51.208;8.904;2022-12-05T00:04:08;2.90;99.90
8715;DHT22;4394;51.208;8.904;2022-12-05T00:06:56;2.90;99.90
8715;DHT22;4394;51.208;8.904;2022-12-05T00:09:47;2.90;99.90
8715;DHT22;4394;51.208;8.904;2022-12-05T00:12:34;2.90;99.90
8715;DHT22;4394;51.208;8.904;2022-12-05T00:15:24;2.90;99.90
8715;DHT22;4394;51.208;8.904;2022-12-05T00:18:12;2.80;99.90
8715;DHT22;4394;51.208;8.904;2022-12-05T00:20:59;2.80;99.90
8715;DHT22;4394;51.208;8.904;2022-12-05T00:23:48;2.70;99.90
8715;DHT22;4394;51.208;8.904;2022-12-05T00:26:36;2.80;99.90
8715;DHT22;4394;51.208;8.904;2022-12-05T00:29:24;2.80;99.90
8715;DHT22;4394;51.208;8.904;2022-12-05T00:32:13;2.80;99.90
8715;DHT22;4394;51.208;8.904;2022-12-05T00:35:01;2.80;99.90
8715;DHT22;4394;51.208;8.904;2022-12-05T00:37:49;2.80;99.90
8715;DHT22;4394;51.208;8.904;2022-12-05T00:40:37;2.80;99.90
8715;DHT22;4394;51.208;8.904;2022-12-05T00:43:25;2.80;99.90
8715;DHT22;4394;51.208;8.904;2022-12-05T00:46:14;2.70;99.90
8715;DHT22;4394;51.208;8.904;2022-12-05T00:49:04;2.80;99.90
8715;DHT22;4394;51.208;8.904;2022-12-05T00:51:53;2.70;99.90
8715;DHT22;4394;51.208;8.904;2022-12-05T00:54:40;2.70;99.90
8715;DHT22;4394;51.208;8.904;2022-12-05T00:57:28;2.70;99.90
8715;DHT22;4394;51.208;8.904;2022-12-05T01:00:17;2.80;99.90
8715;DHT22;4394;51.208;8.904;2022-12-05T01:03:05;2.80;99.90
8715;DHT22;4394;51.208;8.904;2022-12-05T01:05:54;2.80;99.90
8715;DHT22;4394;51.208;8.904;2022-12-05T01:08:42;2.80;99.90
8715;DHT22;4394;51.208;8.904;2022-12-05T01:11:30;2.80;99.90
8715;DHT22;4394;51.208;8.904;2022-12-05T01:14:26;2.70;99.90
8715;DHT22;4394;51.208;8.904;2022-12-05T01:17:14;2.70;99.90
8715;DHT22;4394;51.208;8.904;2022-12-05T01:20:02;2.70;99.90
8715;DHT22;4394;51.208;8.904;2022-12-05T01:22:52;2.80;99.90
8715;DHT22;4394;51.208;8.904;2022-12-05T01:25:40;2.80;99.90
8715;DHT22;4394;51.208;8.904;2022-12-05T01:28:28;2.80;99.90
8715;DHT22;4394;51.208;8.904;2022-12-05T01:31:17;2.80;99.90
8715;DHT22;4394;51.208;8.904;2022-12-05T01:34:11;2.80;99.90
8715;DHT22;4394;51.208;8.904;2022-12-05T01:36:59;2.80;99.90
8715;DHT22;4394;51.208;8.904;2022-12-05T01:39:48;2.80;99.90
8715;DHT22;4394;51.208;8.904;2022-12-05T01:42:37;2.70;99.90
8715;DHT22;4394;51.208;8.904;2022-12-05T01:45:29;2.80;99.90
8715;DHT22;4394;51.208;8.904;2022-12-05T01:48:19;2.80;99.90
8715;DHT22;4394;51.208;8.904;2022-12-05T01:51:08;2.80;99.90
8715;DHT22;4394;51.208;8.904;2022-12-05T01:53:55;2.80;99.90
8715;DHT22;4394;51.208;8.904;2022-12-05T01:56:48;2.80;99.90
8715;DHT22;4394;51.208;8.904;2022-12-05T01:59:37;2.80;99.90
8715;DHT22;4394;51.208;8.904;2022-12-05T02:02:26;2.80;99.90
8715;DHT22;4394;51.208;8.904;2022-12-05T02:05:16;2.80;99.90
8715;DHT22;4394;51.208;8.904;2022-12-05T02:08:05;2.80;99.90
8715;DHT22;4394;51.208;8.904;2022-12-05T02:10:54;2.80;99.90
8715;DHT22;4394;51.208;8.904;2022-12-05T02:13:57;2.80;99.90
8715;DHT22;4394;51.208;8.904;2022-12-05T02:16:48;2.80;99.90
8715;DHT22;4394;51.208;8.904;2022-12-05T02:19:47;2.90;99.90
8715;DHT22;4394;51.208;8.904;2022-12-05T02:22:54;2.90;99.90
8715;DHT22;4394;51.208;8.904;2022-12-05T02:29:20;2.80;99.90
8715;DHT22;4394;51.208;8.904;2022-12-05T02:32:15;2.80;99.90
8715;DHT22;4394;51.208;8.904;2022-12-05T02:35:08;2.80;99.90
8715;DHT22;4394;51.208;8.904;2022-12-05T02:38:01;2.80;99.90
8715;DHT22;4394;51.208;8.904;2022-12-05T02:40:53;2.80;99.90
8715;DHT22;4394;51.208;8.904;2022-12-05T02:43:43;2.70;99.90
8715;DHT22;4394;51.208;8.904;2022-12-05T02:46:34;2.80;99.90
8715;DHT22;4394;51.208;8.904;2022-12-05T02:49:25;2.70;99.90
8715;DHT22;4394;51.208;8.904;2022-12-05T02:52:15;2.70;99.90
8715;DHT22;4394;51.208;8.904;2022-12-05T02:55:03;2.70;99.90
8715;DHT22;4394;51.208;8.904;2022-12-05T02:57:54;2.70;99.90
8715;DHT22;4394;51.208;8.904;2022-12-05T03:00:45;2.80;99.90
8715;DHT22;4394;51.208;8.904;2022-12-05T03:03:34;2.70;99.90
8715;DHT22;4394;51.208;8.904;2022-12-05T03:06:25;2.70;99.90
8715;DHT22;4394;51.208;8.904;2022-12-05T03:09:14;2.70;99.90
8715;DHT22;4394;51.208;8.904;2022-12-05T03:12:05;2.80;99.90
8715;DHT22;4394;51.208;8.904;2022-12-05T03:14:55;2.70;99.90
8715;DHT22;4394;51.208;8.904;2022-12-05T03:17:46;2.70;99.90
8715;DHT22;4394;51.208;8.904;2022-12-05T03:20:35;2.70;99.90
8715;DHT22;4394;51.208;8.904;2022-12-05T03:23:27;2.70;99.90
8715;DHT22;4394;51.208;8.904;2022-12-05T03:26:17;2.70;99.90
8715;DHT22;4394;51.208;8.904;2022-12-05T03:29:15;2.70;99.90
8715;DHT22;4394;51.208;8.904;2022-12-05T03:32:07;2.80;99.90
8715;DHT22;4394;51.208;8.904;2022-12-05T03:35:00;2.80;99.90
8715;DHT22;4394;51.208;8.904;2022-12-05T03:37:50;2.80;99.90
8715;DHT22;4394;51.208;8.904;2022-12-05T03:40:41;2.80;99.90
8715;DHT22;4394;51.208;8.904;2022-12-05T03:43:32;2.80;99.90
8715;DHT22;4394;51.208;8.904;2022-12-05T03:46:23;2.80;99.90
8715;DHT22;4394;51.208;8.904;2022-12-05T03:49:14;2.80;99.90
8715;DHT22;4394;51.208;8.904;2022-12-05T03:52:05;2.80;99.90
8715;DHT22;4394;51.208;8.904;2022-12-05T03:54:55;2.80;99.90
8715;DHT22;4394;51.208;8.904;2022-12-05T03:57:46;2.80;99.90
8715;DHT22;4394;51.208;8.904;2022-12-05T04:00:37;2.80;99.90
8715;DHT22;4394;51.208;8.904;2022-12-05T04:03:28;2.80;99.90
8715;DHT22;4394;51.208;8.904;2022-12-05T04:06:25;2.80;99.90
8715;DHT22;4394;51.208;8.904;2022-12-05T04:09:17;2.80;99.90
8715;DHT22;4394;51.208;8.904;2022-12-05T04:12:06;2.80;99.90
8715;DHT22;4394;51.208;8.904;2022-12-05T04:14:58;2.80;99.90
8715;DHT22;4394;51.208;8.904;2022-12-05T04:17:49;2.70;99.90
8715;DHT22;4394;51.208;8.904;2022-12-05T04:20:39;2.70;99.90
8715;DHT22;4394;51.208;8.904;2022-12-05T04:23:46;2.80;99.90
8715;DHT22;4394;51.208;8.904;2022-12-05T04:26:56;2.80;99.90
8715;DHT22;4394;51.208;8.904;2022-12-05T04:29:47;2.80;99.90
8715;DHT22;4394;51.208;8.904;2022-12-05T04:32:42;2.80;99.90
8715;DHT22;4394;51.208;8.904;2022-12-05T04:35:32;2.80;99.90
8715;DHT22;4394;51.208;8.904;2022-12-05T04:38:22;2.80;99.90
8715;DHT22;4394;51.208;8.904;2022-12-05T04:41:12;2.80;99.90
8715;DHT22;4394;51.208;8.904;2022-12-05T04:44:04;2.80;99.90
8715;DHT22;4394;51.208;8.904;2022-12-05T04:46:54;2.80;99.90
8715;DHT22;4394;51.208;8.904;2022-12-05T04:49:44;2.80;99.90
8715;DHT22;4394;51.208;8.904;2022-12-05T04:52:39;2.90;99.90
8715;DHT22;4394;51.208;8.904;2022-12-05T04:55:28;2.80;99.90
8715;DHT22;4394;51.208;8.904;2022-12-05T04:58:18;2.80;99.90
8715;DHT22;4394;51.208;8.904;2022-12-05T05:01:09;2.80;99.90
8715;DHT22;4394;51.208;8.904;2022-12-05T05:03:58;2.80;99.90
8715;DHT22;4394;51.208;8.904;2022-12-05T05:06:48;2.90;99.90
8715;DHT22;4394;51.208;8.904;2022-12-05T05:09:36;2.80;99.90
8715;DHT22;4394;51.208;8.904;2022-12-05T05:12:24;2.80;99.90
8715;DHT22;4394;51.208;8.904;2022-12-05T05:15:12;2.80;99.90
8715;DHT22;4394;51.208;8.904;2022-12-05T05:18:00;2.80;99.90
8715;DHT22;4394;51.208;8.904;2022-12-05T05:20:48;2.80;99.90
8715;DHT22;4394;51.208;8.904;2022-12-05T05:23:37;2.80;99.90
8715;DHT22;4394;51.208;8.904;2022-12-05T05:26:26;2.80;99.90
8715;DHT22;4394;51.208;8.904;2022-12-05T05:29:14;2.80;99.90
8715;DHT22;4394;51.208;8.904;2022-12-05T05:32:03;2.80;99.90
8715;DHT22;4394;51.208;8.904;2022-12-05T05:34:50;2.80;99.90
8715;DHT22;4394;51.208;8.904;2022-12-05T05:37:38;2.80;99.90
8715;DHT22;4394;51.208;8.904;2022-12-05T05:40:28;2.80;99.90
8715;DHT22;4394;51.208;8.904;2022-12-05T05:43:16;2.70;99.90
8715;DHT22;4394;51.208;8.904;2022-12-05T05:46:04;2.80;99.90
8715;DHT22;4394;51.208;8.904;2022-12-05T05:48:52;2.70;99.90
8715;DHT22;4394;51.208;8.904;2022-12-05T05:51:40;2.70;99.90
8715;DHT22;4394;51.208;8.904;2022-12-05T05:54:29;2.70;99.90
8715;DHT22;4394;51.208;8.904;2022-12-05T05:57:19;2.70;99.90
8715;DHT22;4394;51.208;8.904;2022-12-05T06:00:07;2.70;99.90
8715;DHT22;4394;51.208;8.904;2022-12-05T06:02:55;2.70;99.90
8715;DHT22;4394;51.208;8.904;2022-12-05T06:05:44;2.70;99.90
8715;DHT22;4394;51.208;8.904;2022-12-05T06:08:39;2.60;99.90
8715;DHT22;4394;51.208;8.904;2022-12-05T06:11:28;2.70;99.90
8715;DHT22;4394;51.208;8.904;2022-12-05T06:14:17;2.70;99.90
8715;DHT22;4394;51.208;8.904;2022-12-05T06:17:05;2.70;99.90
8715;DHT22;4394;51.208;8.904;2022-12-05T06:19:53;2.70;99.90
8715;DHT22;4394;51.208;8.904;2022-12-05T06:22:41;2.70;99.90
8715;DHT22;4394;51.208;8.904;2022-12-05T06:25:29;2.70;99.90
8715;DHT22;4394;51.208;8.904;2022-12-05T06:28:18;2.70;99.90
8715;DHT22;4394;51.208;8.904;2022-12-05T06:31:08;2.70;99.90
8715;DHT22;4394;51.208;8.904;2022-12-05T06:33:58;2.60;99.90
8715;DHT22;4394;51.208;8.904;2022-12-05T06:36:46;2.60;99.90
8715;DHT22;4394;51.208;8.904;2022-12-05T06:39:34;2.60;99.90
8715;DHT22;4394;51.208;8.904;2022-12-05T06:42:22;2.60;99.90
8715;DHT22;4394;51.208;8.904;2022-12-05T06:45:10;2.60;99.90
8715;DHT22;4394;51.208;8.904;2022-12-05T06:48:00;2.60;99.90
8715;DHT22;4394;51.208;8.904;2022-12-05T06:50:48;2.60;99.90
8715;DHT22;4394;51.208;8.904;2022-12-05T06:53:36;2.60;99.90
8715;DHT22;4394;51.208;8.904;2022-12-05T06:56:24;2.60;99.90
8715;DHT22;4394;51.208;8.904;2022-12-05T06:59:12;2.50;99.90
8715;DHT22;4394;51.208;8.904;2022-12-05T07:02:00;2.50;99.90
8715;DHT22;4394;51.208;8.904;2022-12-05T07:04:48;2.60;99.90
8715;DHT22;4394;51.208;8.904;2022-12-05T07:07:36;2.60;99.90
8715;DHT22;4394;51.208;8.904;2022-12-05T07:10:24;2.60;99.90
8715;DHT22;4394;51.208;8.904;2022-12-05T07:13:12;2.50;99.90
8715;DHT22;4394;51.208;8.904;2022-12-05T07:16:01;2.50;99.90
8715;DHT22;4394;51.208;8.904;2022-12-05T07:18:52;2.50;99.90
8715;DHT22;4394;51.208;8.904;2022-12-05T07:21:42;2.50;99.90
8715;DHT22;4394;51.208;8.904;2022-12-05T07:24:29;2.50;99.90
8715;DHT22;4394;51.208;8.904;2022-12-05T07:27:17;2.50;99.90
8715;DHT22;4394;51.208;8.904;2022-12-05T07:30:14;2.50;99.90
8715;DHT22;4394;51.208;8.904;2022-12-05T07:33:02;2.60;99.90
8715;DHT22;4394;51.208;8.904;2022-12-05T07:35:50;2.60;99.90
8715;DHT22;4394;51.208;8.904;2022-12-05T07:38:39;2.60;99.90
8715;DHT22;4394;51.208;8.904;2022-12-05T07:41:28;2.60;99.90
8715;DHT22;4394;51.208;8.904;2022-12-05T07:44:16;2.60;99.90
8715;DHT22;4394;51.208;8.904;2022-12-05T07:47:04;2.60;99.90
8715;DHT22;4394;51.208;8.904;2022-12-05T07:49:52;2.60;99.90
8715;DHT22;4394;51.208;8.904;2022-12-05T07:52:40;2.60;99.90
8715;DHT22;4394;51.208;8.904;2022-12-05T07:55:29;2.60;99.90
8715;DHT22;4394;51.208;8.904;2022-12-05T07:58:18;2.60;99.90
8715;DHT22;4394;51.208;8.904;2022-12-05T08:01:06;2.60;99.90
8715;DHT22;4394;51.208;8.904;2022-12-05T08:03:55;2.60;99.90
8715;DHT22;4394;51.208;8.904;2022-12-05T08:06:43;2.60;99.90
8715;DHT22;4394;51.208;8.904;2022-12-05T08:09:30;2.60;99.90
8715;DHT22;4394;51.208;8.904;2022-12-05T08:12:20;2.60;99.90
8715;DHT22;4394;51.208;8.904;2022-12-05T08:15:08;2.60;99.90
8715;DHT22;4394;51.208;8.904;2022-12-05T08:17:56;2.70;99.90
8715;DHT22;4394;51.208;8.904;2022-12-05T08:20:44;2.70;99.90
8715;DHT22;4394;51.208;8.904;2022-12-05T08:23:32;2.70;99.90
8715;DHT22;4394;51.208;8.904;2022-12-05T08:26:21;2.80;99.90
8715;DHT22;4394;51.208;8.904;2022-12-05T08:29:12;2.80;99.90
8715;DHT22;4394;51.208;8.904;2022-12-05T08:32:00;2.80;99.90
8715;DHT22;4394;51.208;8.904;2022-12-05T08:34:48;2.90;99.90
8715;DHT22;4394;51.208;8.904;2022-12-05T08:37:36;2.90;99.90
8715;DHT22;4394;51.208;8.904;2022-12-05T08:40:24;2.90;99.90
8715;DHT22;4394;51.208;8.904;2022-12-05T08:43:12;3.00;99.90
8715;DHT22;4394;51.208;8.904;2022-12-05T08:46:02;3.00;99.90
8715;DHT22;4394;51.208;8.904;2022-12-05T08:48:50;3.00;99.90
8715;DHT22;4394;51.208;8.904;2022-12-05T08:51:38;3.00;99.90
8715;DHT22;4394;51.208;8.904;2022-12-05T08:54:26;3.10;99.90
8715;DHT22;4394;51.208;8.904;2022-12-05T08:57:14;3.10;99.90
8715;DHT22;4394;51.208;8.904;2022-12-05T09:00:02;3.10;99.90
8715;DHT22;4394;51.208;8.904;2022-12-05T09:02:52;3.20;99.90
8715;DHT22;4394;51.208;8.904;2022-12-05T09:05:40;3.20;99.90
8715;DHT22;4394;51.208;8.904;2022-12-05T09:08:28;3.20;99.90
8715;DHT22;4394;51.208;8.904;2022-12-05T09:11:17;3.20;99.90
8715;DHT22;4394;51.208;8.904;2022-12-05T09:14:05;3.20;99.90
8715;DHT22;4394;51.208;8.904;2022-12-05T09:16:53;3.20;99.90
8715;DHT22;4394;51.208;8.904;2022-12-05T09:19:42;3.30;99.90
8715;DHT22;4394;51.208;8.904;2022-12-05T09:22:30;3.40;99.90
8715;DHT22;4394;51.208;8.904;2022-12-05T09:25:18;3.30;99.90
8715;DHT22;4394;51.208;8.904;2022-12-05T09:28:06;3.40;99.90
8715;DHT22;4394;51.208;8.904;2022-12-05T09:30:54;3.40;99.90
8715;DHT22;4394;51.208;8.904;2022-12-05T09:33:43;3.40;99.90
8715;DHT22;4394;51.208;8.904;2022-12-05T09:36:32;3.40;99.90
8715;DHT22;4394;51.208;8.904;2022-12-05T09:39:20;3.50;99.90
8715;DHT22;4394;51.208;8.904;2022-12-05T09:45:25;3.50;99.90
8715;DHT22;4394;51.208;8.904;2022-12-05T09:48:15;3.50;99.90
8715;DHT22;4394;51.208;8.904;2022-12-05T09:51:06;3.60;99.90
8715;DHT22;4394;51.208;8.904;2022-12-05T09:53:57;3.60;99.90
8715;DHT22;4394;51.208;8.904;2022-12-05T09:56:44;3.70;99.90
8715;DHT22;4394;51.208;8.904;2022-12-05T09:59:35;3.70;99.90
8715;DHT22;4394;51.208;8.904;2022-12-05T10:02:24;3.70;99.90
8715;DHT22;4394;51.208;8.904;2022-12-05T10:05:16;3.60;99.90
8715;DHT22;4394;51.208;8.904;2022-12-05T10:08:06;3.60;99.90
8715;DHT22;4394;51.208;8.904;2022-12-05T10:11:00;3.60;99.90
8715;DHT22;4394;51.208;8.904;2022-12-05T10:13:51;3.60;99.90
8715;DHT22;4394;51.208;8.904;2022-12-05T10:16:41;3.60;99.90
8715;DHT22;4394;51.208;8.904;2022-12-05T10:19:34;3.60;99.90
8715;DHT22;4394;51.208;8.904;2022-12-05T10:22:26;3.70;99.90
8715;DHT22;4394;51.208;8.904;2022-12-05T10:25:16;3.70;99.90
8715;DHT22;4394;51.208;8.904;2022-12-05T10:28:10;3.70;99.90
8715;DHT22;4394;51.208;8.904;2022-12-05T10:31:03;3.70;99.90
8715;DHT22;4394;51.208;8.904;2022-12-05T10:33:55;3.90;99.90
8715;DHT22;4394;51.208;8.904;2022-12-05T10:36:48;4.10;99.90
8715;DHT22;4394;51.208;8.904;2022-12-05T10:39:40;4.20;99.90
8715;DHT22;4394;51.208;8.904;2022-12-05T10:42:29;4.30;99.90
8715;DHT22;4394;51.208;8.904;2022-12-05T10:45:20;4.40;99.90
8715;DHT22;4394;51.208;8.904;2022-12-05T10:48:08;4.40;99.90
8715;DHT22;4394;51.208;8.904;2022-12-05T10:50:58;4.40;99.90
8715;DHT22;4394;51.208;8.904;2022-12-05T10:53:47;4.40;99.90
8715;DHT22;4394;51.208;8.904;2022-12-05T10:56:36;4.40;99.90
8715;DHT22;4394;51.208;8.904;2022-12-05T10:59:36;4.50;99.90
8715;DHT22;4394;51.208;8.904;2022-12-05T11:02:32;4.40;99.90
8715;DHT22;4394;51.208;8.904;2022-12-05T11:05:26;4.50;99.90
8715;DHT22;4394;51.208;8.904;2022-12-05T11:08:20;4.50;99.90
8715;DHT22;4394;51.208;8.904;2022-12-05T11:11:29;4.60;99.90
8715;DHT22;4394;51.208;8.904;2022-12-05T11:14:20;4.50;99.90
8715;DHT22;4394;51.208;8.904;2022-12-05T11:17:08;4.50;99.90
8715;DHT22;4394;51.208;8.904;2022-12-05T11:23:19;4.50;99.90
8715;DHT22;4394;51.208;8.904;2022-12-05T11:26:14;4.50;99.90
8715;DHT22;4394;51.208;8.904;2022-12-05T11:29:03;4.50;99.90
8715;DHT22;4394;51.208;8.904;2022-12-05T11:31:51;4.40;99.90
8715;DHT22;4394;51.208;8.904;2022-12-05T11:34:40;4.40;99.90
8715;DHT22;4394;51.208;8.904;2022-12-05T11:37:32;4.40;99.90
8715;DHT22;4394;51.208;8.904;2022-12-05T11:40:24;4.40;99.90
8715;DHT22;4394;51.208;8.904;2022-12-05T11:43:30;4.40;99.90
8715;DHT22;4394;51.208;8.904;2022-12-05T11:46:23;4.40;99.90
8715;DHT22;4394;51.208;8.904;2022-12-05T11:49:20;4.40;99.90
8715;DHT22;4394;51.208;8.904;2022-12-05T11:52:17;4.40;99.90
8715;DHT22;4394;51.208;8.904;2022-12-05T11:55:11;4.30;99.90
8715;DHT22;4394;51.208;8.904;2022-12-05T11:58:16;4.30;99.90
8715;DHT22;4394;51.208;8.904;2022-12-05T12:01:10;4.30;99.90
8715;DHT22;4394;51.208;8.904;2022-12-05T12:07:12;4.30;99.90
8715;DHT22;4394;51.208;8.904;2022-12-05T12:10:06;4.20;99.90
8715;DHT22;4394;51.208;8.904;2022-12-05T12:13:00;4.20;99.90
8715;DHT22;4394;51.208;8.904;2022-12-05T12:15:59;4.10;99.90
8715;DHT22;4394;51.208;8.904;2022-12-05T12:19:01;4.20;99.90
8715;DHT22;4394;51.208;8.904;2022-12-05T12:21:57;4.10;99.90
8715;DHT22;4394;51.208;8.904;2022-12-05T12:24:52;4.10;99.90
8715;DHT22;4394;51.208;8.904;2022-12-05T12:27:49;4.10;99.90
8715;DHT22;4394;51.208;8.904;2022-12-05T12:30:43;4.10;99.90
8715;DHT22;4394;51.208;8.904;2022-12-05T12:33:37;4.10;99.90
8715;DHT22;4394;51.208;8.904;2022-12-05T12:36:27;4.10;99.90
8715;DHT22;4394;51.208;8.904;2022-12-05T12:39:24;4.10;99.90
8715;DHT22;4394;51.208;8.904;2022-12-05T12:42:20;4.10;99.90
8715;DHT22;4394;51.208;8.904;2022-12-05T12:45:18;4.10;99.90
8715;DHT22;4394;51.208;8.904;2022-12-05T12:48:10;4.10;99.90
8715;DHT22;4394;51.208;8.904;2022-12-05T12:51:01;4.00;99.90
8715;DHT22;4394;51.208;8.904;2022-12-05T12:53:55;4.00;99.90
8715;DHT22;4394;51.208;8.904;2022-12-05T12:56:49;4.10;99.90
8715;DHT22;4394;51.208;8.904;2022-12-05T12:59:46;4.00;99.90
8715;DHT22;4394;51.208;8.904;2022-12-05T13:02:37;4.00;99.90
8715;DHT22;4394;51.208;8.904;2022-12-05T13:05:30;4.00;99.90
8715;DHT22;4394;51.208;8.904;2022-12-05T13:08:23;4.00;99.90
8715;DHT22;4394;51.208;8.904;2022-12-05T13:11:13;4.00;99.90
8715;DHT22;4394;51.208;8.904;2022-12-05T13:14:02;4.00;99.90
8715;DHT22;4394;51.208;8.904;2022-12-05T13:16:52;4.00;99.90
8715;DHT22;4394;51.208;8.904;2022-12-05T13:19:41;4.00;99.90
8715;DHT22;4394;51.208;8.904;2022-12-05T13:22:30;4.00;99.90
8715;DHT22;4394;51.208;8.904;2022-12-05T13:25:20;4.00;99.90
8715;DHT22;4394;51.208;8.904;2022-12-05T13:28:15;4.00;99.90
8715;DHT22;4394;51.208;8.904;2022-12-05T13:31:11;4.00;99.90
8715;DHT22;4394;51.208;8.904;2022-12-05T13:34:02;4.00;99.90
8715;DHT22;4394;51.208;8.904;2022-12-05T13:36:50;3.90;99.90
8715;DHT22;4394;51.208;8.904;2022-12-05T13:39:56;4.00;99.90
8715;DHT22;4394;51.208;8.904;2022-12-05T13:43:04;4.00;99.90
8715;DHT22;4394;51.208;8.904;2022-12-05T13:45:56;4.00;99.90
8715;DHT22;4394;51.208;8.904;2022-12-05T13:48:46;4.00;99.90
8715;DHT22;4394;51.208;8.904;2022-12-05T13:51:36;4.00;99.90
8715;DHT22;4394;51.208;8.904;2022-12-05T13:54:25;4.00;99.90
8715;DHT22;4394;51.208;8.904;2022-12-05T14:00:27;3.90;99.90
8715;DHT22;4394;51.208;8.904;2022-12-05T14:03:16;3.90;99.90
8715;DHT22;4394;51.208;8.904;2022-12-05T14:06:05;3.90;99.90
8715;DHT22;4394;51.208;8.904;2022-12-05T14:08:53;3.90;99.90
8715;DHT22;4394;51.208;8.904;2022-12-05T14:11:53;3.90;99.90
8715;DHT22;4394;51.208;8.904;2022-12-05T14:15:03;3.90;99.90
8715;DHT22;4394;51.208;8.904;2022-12-05T14:17:54;3.90;99.90
8715;DHT22;4394;51.208;8.904;2022-12-05T14:20:47;3.90;99.90
8715;DHT22;4394;51.208;8.904;2022-12-05T14:23:48;3.90;99.90
8715;DHT22;4394;51.208;8.904;2022-12-05T14:26:42;3.90;99.90
8715;DHT22;4394;51.208;8.904;2022-12-05T14:29:36;3.90;99.90
8715;DHT22;4394;51.208;8.904;2022-12-05T14:32:28;3.90;99.90
8715;DHT22;4394;51.208;8.904;2022-12-05T14:35:18;3.90;99.90
8715;DHT22;4394;51.208;8.904;2022-12-05T14:38:17;3.90;99.90
8715;DHT22;4394;51.208;8.904;2022-12-05T14:41:10;3.90;99.90
8715;DHT22;4394;51.208;8.904;2022-12-05T14:43:59;3.80;99.90
8715;DHT22;4394;51.208;8.904;2022-12-05T14:46:54;3.80;99.90
8715;DHT22;4394;51.208;8.904;2022-12-05T14:49:53;3.80;99.90
8715;DHT22;4394;51.208;8.904;2022-12-05T14:52:43;3.90;99.90
8715;DHT22;4394;51.208;8.904;2022-12-05T14:55:34;3.90;99.90
8715;DHT22;4394;51.208;8.904;2022-12-05T14:58:26;3.80;99.90
8715;DHT22;4394;51.208;8.904;2022-12-05T15:01:17;3.80;99.90
8715;DHT22;4394;51.208;8.904;2022-12-05T15:04:08;3.80;99.90
8715;DHT22;4394;51.208;8.904;2022-12-05T15:06:59;3.80;99.90
8715;DHT22;4394;51.208;8.904;2022-12-05T15:09:55;3.80;99.90
8715;DHT22;4394;51.208;8.904;2022-12-05T15:12:45;3.80;99.90
8715;DHT22;4394;51.208;8.904;2022-12-05T15:15:36;3.80;99.90
8715;DHT22;4394;51.208;8.904;2022-12-05T15:18:27;3.80;99.90
8715;DHT22;4394;51.208;8.904;2022-12-05T15:21:19;3.80;99.90
8715;DHT22;4394;51.208;8.904;2022-12-05T15:24:12;3.80;99.90
8715;DHT22;4394;51.208;8.904;2022-12-05T15:27:00;3.80;99.90
8715;DHT22;4394;51.208;8.904;2022-12-05T15:29:52;3.80;99.90
8715;DHT22;4394;51.208;8.904;2022-12-05T15:32:42;3.60;99.90
8715;DHT22;4394;51.208;8.904;2022-12-05T15:35:30;3.80;99.90
8715;DHT22;4394;51.208;8.904;2022-12-05T15:38:20;3.80;99.90
8715;DHT22;4394;51.208;8.904;2022-12-05T15:41:16;3.80;99.90
8715;DHT22;4394;51.208;8.904;2022-12-05T15:44:05;3.80;99.90
8715;DHT22;4394;51.208;8.904;2022-12-05T15:46:53;3.80;99.90
8715;DHT22;4394;51.208;8.904;2022-12-05T15:49:41;3.80;99.90
8715;DHT22;4394;51.208;8.904;2022-12-05T15:52:30;3.80;99.90
8715;DHT22;4394;51.208;8.904;2022-12-05T15:55:21;3.80;99.90
8715;DHT22;4394;51.208;8.904;2022-12-05T15:58:14;3.80;99.90
8715;DHT22;4394;51.208;8.904;2022-12-05T16:01:08;3.80;99.90
8715;DHT22;4394;51.208;8.904;2022-12-05T16:03:58;3.80;99.90
8715;DHT22;4394;51.208;8.904;2022-12-05T16:06:48;3.80;99.90
8715;DHT22;4394;51.208;8.904;2022-12-05T16:09:38;3.90;99.90
8715;DHT22;4394;51.208;8.904;2022-12-05T16:12:30;3.80;99.90
8715;DHT22;4394;51.208;8.904;2022-12-05T16:15:22;3.80;99.90
8715;DHT22;4394;51.208;8.904;2022-12-05T16:18:18;3.70;99.90
8715;DHT22;4394;51.208;8.904;2022-12-05T16:24:15;3.80;99.90
8715;DHT22;4394;51.208;8.904;2022-12-05T16:27:05;3.80;99.90
8715;DHT22;4394;51.208;8.904;2022-12-05T16:33:01;3.70;99.90
8715;DHT22;4394;51.208;8.904;2022-12-05T16:35:49;3.70;99.90
8715;DHT22;4394;51.208;8.904;2022-12-05T16:38:38;3.70;99.90
8715;DHT22;4394;51.208;8.904;2022-12-05T16:41:31;3.80;99.90
8715;DHT22;4394;51.208;8.904;2022-12-05T16:44:51;3.80;99.90
8715;DHT22;4394;51.208;8.904;2022-12-05T16:47:53;3.80;99.90
8715;DHT22;4394;51.208;8.904;2022-12-05T16:50:43;3.70;99.90
8715;DHT22;4394;51.208;8.904;2022-12-05T16:53:31;3.70;99.90
8715;DHT22;4394;51.208;8.904;2022-12-05T16:56:20;3.80;99.90
8715;DHT22;4394;51.208;8.904;2022-12-05T16:59:11;3.80;99.90
8715;DHT22;4394;51.208;8.904;2022-12-05T17:02:01;3.80;99.90
8715;DHT22;4394;51.208;8.904;2022-12-05T17:04:51;3.80;99.90
8715;DHT22;4394;51.208;8.904;2022-12-05T17:07:40;3.70;99.90
8715;DHT22;4394;51.208;8.904;2022-12-05T17:10:28;3.80;99.90
8715;DHT22;4394;51.208;8.904;2022-12-05T17:13:16;3.90;99.90
8715;DHT22;4394;51.208;8.904;2022-12-05T17:16:05;3.80;99.90
8715;DHT22;4394;51.208;8.904;2022-12-05T17:18:53;3.80;99.90
8715;DHT22;4394;51.208;8.904;2022-12-05T17:21:41;3.80;99.90
8715;DHT22;4394;51.208;8.904;2022-12-05T17:24:31;3.80;99.90
8715;DHT22;4394;51.208;8.904;2022-12-05T17:27:19;3.80;99.90
8715;DHT22;4394;51.208;8.904;2022-12-05T17:30:07;3.80;99.90
8715;DHT22;4394;51.208;8.904;2022-12-05T17:32:55;3.70;99.90
8715;DHT22;4394;51.208;8.904;2022-12-05T17:35:43;3.70;99.90
8715;DHT22;4394;51.208;8.904;2022-12-05T17:38:31;3.80;99.90
8715;DHT22;4394;51.208;8.904;2022-12-05T17:41:21;3.80;99.90
8715;DHT22;4394;51.208;8.904;2022-12-05T17:44:10;3.70;99.90
8715;DHT22;4394;51.208;8.904;2022-12-05T17:46:59;3.80;99.90
8715;DHT22;4394;51.208;8.904;2022-12-05T17:49:53;3.80;99.90
8715;DHT22;4394;51.208;8.904;2022-12-05T17:52:42;3.80;99.90
8715;DHT22;4394;51.208;8.904;2022-12-05T17:55:30;3.80;99.90
8715;DHT22;4394;51.208;8.904;2022-12-05T17:58:20;3.80;99.90
8715;DHT22;4394;51.208;8.904;2022-12-05T18:01:09;3.80;99.90
8715;DHT22;4394;51.208;8.904;2022-12-05T18:03:58;3.80;99.90
8715;DHT22;4394;51.208;8.904;2022-12-05T18:06:46;3.80;99.90
8715;DHT22;4394;51.208;8.904;2022-12-05T18:09:33;3.80;99.90
8715;DHT22;4394;51.208;8.904;2022-12-05T18:12:21;3.80;99.90
8715;DHT22;4394;51.208;8.904;2022-12-05T18:15:11;3.80;99.90
8715;DHT22;4394;51.208;8.904;2022-12-05T18:17:59;3.80;99.90
8715;DHT22;4394;51.208;8.904;2022-12-05T18:20:48;3.80;99.90
8715;DHT22;4394;51.208;8.904;2022-12-05T18:23:37;3.80;99.90
8715;DHT22;4394;51.208;8.904;2022-12-05T18:26:25;3.80;99.90
8715;DHT22;4394;51.208;8.904;2022-12-05T18:29:13;3.80;99.90
8715;DHT22;4394;51.208;8.904;2022-12-05T18:32:03;3.80;99.90
8715;DHT22;4394;51.208;8.904;2022-12-05T18:34:51;3.80;99.90
8715;DHT22;4394;51.208;8.904;2022-12-05T18:37:39;3.80;99.90
8715;DHT22;4394;51.208;8.904;2022-12-05T18:40:27;3.80;99.90
8715;DHT22;4394;51.208;8.904;2022-12-05T18:43:15;3.80;99.90
8715;DHT22;4394;51.208;8.904;2022-12-05T18:46:03;3.80;99.90
8715;DHT22;4394;51.208;8.904;2022-12-05T18:48:52;3.70;99.90
8715;DHT22;4394;51.208;8.904;2022-12-05T18:51:47;3.70;99.90
8715;DHT22;4394;51.208;8.904;2022-12-05T18:54:35;3.70;99.90
8715;DHT22;4394;51.208;8.904;2022-12-05T18:57:23;3.70;99.90
8715;DHT22;4394;51.208;8.904;2022-12-05T19:00:11;3.80;99.90
8715;DHT22;4394;51.208;8.904;2022-12-05T19:02:59;3.70;99.90
8715;DHT22;4394;51.208;8.904;2022-12-05T19:05:56;3.70;99.90
8715;DHT22;4394;51.208;8.904;2022-12-05T19:08:44;3.70;99.90
8715;DHT22;4394;51.208;8.904;2022-12-05T19:11:32;3.80;99.90
8715;DHT22;4394;51.208;8.904;2022-12-05T19:14:20;3.70;99.90